Time;durP1;ratioP1;P1;durP2;ratioP2;P2;SDS_P1;SDS_P2;PMS_P1;PMS_P2;Temp;Humidity;BMP_temperature;BMP_pressure;BME280_temperature;BME280_humidity;BME280_pressure;Samples;Min_cycle;Max_cycle;Signal;HPM_P1;HPM_P2
2023/12/31 00:02:09;;;;;;;5.20;2.40;;;;;;;12.89;42.12;99610.84;107975;1259;60115;-67
2023/12/31 00:04:36;;;;;;;4.70;2.20;;;;;;;12.98;42.07;99614.60;107958;1253;60292;-67
2023/12/31 00:07:04;;;;;;;5.30;2.30;;;;;;;12.83;42.10;99609.58;107999;1253;74117;-67
2023/12/31 00:09:32;;;;;;;4.30;2.40;;;;;;;12.96;41.90;99606.98;108058;1254;68705;-68
2023/12/31 00:11:59;;;;;;;3.70;2.20;;;;;;;12.94;41.97;99606.39;107979;1253;72760;-67
2023/12/31 00:14:27;;;;;;;3.80;2.30;;;;;;;12.87;41.95;99612.59;107995;1253;60355;-68
2023/12/31 00:16:54;;;;;;;7.70;2.50;;;;;;;13.07;41.62;99614.27;107995;1253;60290;-68
2023/12/31 00:19:22;;;;;;;3.70;2.10;;;;;;;13.06;41.67;99617.35;108084;1253;73228;-68
2023/12/31 00:21:49;;;;;;;5.80;2.40;;;;;;;12.77;42.03;99611.52;108002;1253;69021;-68
2023/12/31 00:24:17;;;;;;;3.60;2.50;;;;;;;12.80;42.09;99612.77;107959;1255;72477;-67
2023/12/31 00:26:44;;;;;;;4.60;2.30;;;;;;;12.87;41.81;99614.35;108002;1254;60895;-67
2023/12/31 00:29:14;;;;;;;6.00;2.50;;;;;;;12.92;41.80;99617.42;108058;1253;60232;-66
2023/12/31 00:31:41;;;;;;;6.10;2.60;;;;;;;12.93;41.73;99612.23;108068;1254;72617;-66
2023/12/31 00:34:10;;;;;;;4.20;2.20;;;;;;;13.07;41.61;99616.77;108060;1254;69967;-67
2023/12/31 00:36:38;;;;;;;4.70;2.60;;;;;;;12.83;41.63;99609.61;108079;1254;70786;-68
2023/12/31 00:39:05;;;;;;;4.20;2.50;;;;;;;12.92;41.60;99608.25;108013;1254;61461;-68
2023/12/31 00:41:33;;;;;;;4.40;2.30;;;;;;;12.94;41.46;99607.25;108055;1257;60326;-66
2023/12/31 00:44:00;;;;;;;3.70;2.60;;;;;;;13.06;41.36;99612.77;108131;1253;72564;-68
2023/12/31 00:46:28;;;;;;;3.50;2.50;;;;;;;12.97;41.37;99605.14;108024;1254;68970;-67
2023/12/31 00:48:57;;;;;;;3.90;2.30;;;;;;;13.00;41.44;99609.02;108089;1254;72852;-69
2023/12/31 00:51:24;;;;;;;5.40;2.70;;;;;;;13.04;41.36;99609.88;108150;1252;60936;-67
2023/12/31 00:53:52;;;;;;;5.00;2.60;;;;;;;12.87;41.59;99603.41;108140;1254;60257;-67
2023/12/31 00:56:19;;;;;;;5.70;2.50;;;;;;;12.81;41.73;99601.12;108267;1253;72069;-67
2023/12/31 00:58:47;;;;;;;6.30;2.90;;;;;;;12.81;41.74;99597.73;108106;1253;68804;-67
2023/12/31 01:01:15;;;;;;;4.60;2.60;;;;;;;12.77;41.80;99604.65;108122;1254;71469;-66
2023/12/31 01:03:42;;;;;;;6.10;3.00;;;;;;;12.70;41.90;99606.08;108146;1254;60987;-65
2023/12/31 01:06:10;;;;;;;5.10;2.60;;;;;;;12.85;41.66;99614.11;108262;1253;59020;-68
2023/12/31 01:08:37;;;;;;;4.60;2.80;;;;;;;12.95;41.63;99621.67;108104;1254;74043;-68
2023/12/31 01:11:05;;;;;;;4.00;2.60;;;;;;;12.91;41.57;99626.09;108113;1254;69208;-68
2023/12/31 01:13:32;;;;;;;5.60;2.80;;;;;;;12.89;41.58;99625.32;108073;1253;72518;-68
2023/12/31 01:16:00;;;;;;;5.20;2.90;;;;;;;12.83;41.67;99622.30;108009;1252;60404;-67
2023/12/31 01:18:28;;;;;;;4.60;2.70;;;;;;;12.74;41.94;99622.79;108184;1253;60075;-66
2023/12/31 01:20:56;;;;;;;4.40;2.40;;;;;;;12.75;42.06;99625.74;108170;1254;73869;-62
2023/12/31 01:23:25;;;;;;;4.10;2.80;;;;;;;12.84;41.95;99625.92;108002;1254;69230;-66
2023/12/31 01:25:53;;;;;;;4.60;2.40;;;;;;;12.72;42.14;99629.59;108021;1255;71887;-66
2023/12/31 01:28:20;;;;;;;5.70;2.40;;;;;;;12.94;41.84;99623.45;108048;1253;60531;-66
2023/12/31 01:30:48;;;;;;;3.50;2.10;;;;;;;12.85;41.85;99625.16;108048;1252;60294;-68
2023/12/31 01:33:17;;;;;;;4.00;2.50;;;;;;;12.82;41.96;99628.71;108001;1253;73844;-68
2023/12/31 01:35:44;;;;;;;4.50;2.50;;;;;;;12.91;41.89;99633.31;108125;1252;68748;-66
2023/12/31 01:38:12;;;;;;;4.70;2.60;;;;;;;12.77;42.09;99629.66;108141;1252;72677;-68
2023/12/31 01:40:40;;;;;;;4.80;2.80;;;;;;;12.75;42.15;99626.42;108123;1254;60333;-68
2023/12/31 01:45:49;;;;;;;4.50;2.80;;;;;;;10.81;46.43;99637.48;105354;1284;612651;-65
2023/12/31 01:48:16;;;;;;;3.30;2.40;;;;;;;11.97;44.06;99629.24;107298;1266;59144;-67
2023/12/31 01:50:43;;;;;;;4.40;2.70;;;;;;;11.84;44.20;99630.79;107358;1265;59591;-69
2023/12/31 01:53:11;;;;;;;5.50;2.80;;;;;;;12.04;43.93;99626.84;107972;1256;72400;-66
2023/12/31 01:55:39;;;;;;;5.60;2.90;;;;;;;11.99;44.03;99627.77;107903;1255;70313;-66
2023/12/31 01:58:05;;;;;;;5.20;2.90;;;;;;;12.06;43.87;99632.16;107904;1254;110464;-66
2023/12/31 02:00:32;;;;;;;7.30;2.80;;;;;;;12.24;43.68;99635.77;108117;1253;59743;-68
2023/12/31 02:02:59;;;;;;;5.50;2.70;;;;;;;12.21;43.61;99631.37;108038;1253;59815;-66
2023/12/31 02:05:26;;;;;;;7.50;3.00;;;;;;;12.13;43.85;99632.50;108081;1253;71993;-67
2023/12/31 02:07:53;;;;;;;5.00;2.70;;;;;;;12.04;44.09;99632.27;108154;1253;69372;-67
2023/12/31 02:10:20;;;;;;;4.10;2.90;;;;;;;12.03;44.23;99637.78;108159;1253;73025;-68
2023/12/31 02:12:47;;;;;;;7.00;3.00;;;;;;;12.02;44.25;99639.73;108092;1253;59551;-67
2023/12/31 02:15:14;;;;;;;6.30;3.40;;;;;;;12.12;44.08;99644.67;107939;1253;60564;-67
2023/12/31 02:17:41;;;;;;;4.50;2.60;;;;;;;12.08;44.15;99643.68;108121;1251;71015;-67
2023/12/31 02:20:09;;;;;;;5.80;3.20;;;;;;;12.23;44.05;99642.20;108334;1253;70576;-66
2023/12/31 02:22:36;;;;;;;4.50;3.10;;;;;;;12.24;44.13;99647.44;108165;1253;72560;-66
2023/12/31 02:25:07;;;;;;;4.50;2.80;;;;;;;12.31;43.90;99645.84;108099;1253;61263;-68
2023/12/31 02:27:34;;;;;;;5.00;2.90;;;;;;;12.35;43.93;99650.02;108114;1253;59616;-65
2023/12/31 02:30:01;;;;;;;4.70;3.10;;;;;;;12.42;43.82;99650.87;108184;1253;72103;-65
2023/12/31 02:32:28;;;;;;;6.00;2.90;;;;;;;12.65;43.37;99644.72;108165;1253;70696;-68
2023/12/31 02:34:54;;;;;;;10.10;3.10;;;;;;;12.45;43.61;99648.45;108250;1253;72662;-66
2023/12/31 02:37:22;;;;;;;5.50;3.20;;;;;;;12.31;43.72;99652.52;108371;1256;59750;-67
2023/12/31 02:39:49;;;;;;;6.60;3.10;;;;;;;12.22;43.99;99652.42;108227;1253;60295;-67
2023/12/31 02:42:16;;;;;;;5.70;3.10;;;;;;;12.20;43.90;99647.83;108402;1256;72774;-65
2023/12/31 02:44:44;;;;;;;7.70;3.40;;;;;;;12.13;44.05;99649.05;108278;1251;70900;-68
2023/12/31 02:47:11;;;;;;;7.50;4.00;;;;;;;11.94;44.46;99651.57;108295;1256;59504;-67
2023/12/31 02:49:38;;;;;;;4.90;3.20;;;;;;;11.98;44.38;99650.14;108309;1251;60992;-67
2023/12/31 02:52:05;;;;;;;8.20;3.40;;;;;;;11.98;44.48;99649.46;108331;1251;60274;-68
2023/12/31 02:54:31;;;;;;;6.40;2.90;;;;;;;11.96;44.49;99655.54;108332;1252;71829;-66
2023/12/31 02:56:58;;;;;;;7.70;3.80;;;;;;;12.01;44.46;99657.74;108304;1255;70823;-66
2023/12/31 02:59:26;;;;;;;4.60;3.20;;;;;;;12.24;44.03;99659.92;108304;1251;72446;-67
2023/12/31 03:01:53;;;;;;;5.70;3.00;;;;;;;12.09;44.07;99658.25;108335;1251;60661;-67
2023/12/31 03:04:19;;;;;;;5.70;3.30;;;;;;;11.94;44.38;99655.78;108249;1251;60112;-68
2023/12/31 03:06:51;;;;;;;6.80;3.30;;;;;;;12.14;43.97;99663.23;108230;1254;73032;-68
2023/12/31 03:09:18;;;;;;;7.00;3.30;;;;;;;12.05;44.04;99672.51;108221;1251;68465;-68
2023/12/31 03:11:45;;;;;;;6.10;3.10;;;;;;;12.05;44.12;99671.81;108160;1251;72433;-68
2023/12/31 03:14:13;;;;;;;6.50;3.00;;;;;;;12.06;44.13;99670.89;108377;1254;61716;-67
2023/12/31 03:16:46;;;;;;;5.60;2.90;;;;;;;12.08;44.14;99665.98;108212;1253;60497;-66
2023/12/31 03:19:14;;;;;;;5.30;3.30;;;;;;;12.07;44.18;99661.86;108235;1253;73009;-67
2023/12/31 03:21:41;;;;;;;7.10;3.60;;;;;;;12.12;44.03;99666.14;108218;1251;70372;-68
2023/12/31 03:24:07;;;;;;;6.30;3.20;;;;;;;12.15;44.00;99669.71;108272;1251;71339;-65
2023/12/31 03:26:35;;;;;;;4.40;3.00;;;;;;;12.00;44.24;99677.51;108229;1256;59777;-67
2023/12/31 03:29:02;;;;;;;5.30;3.40;;;;;;;11.99;44.35;99678.64;108342;1251;59526;-68
2023/12/31 03:31:29;;;;;;;5.70;3.40;;;;;;;11.99;44.30;99684.77;108263;1251;73622;-67
2023/12/31 03:33:55;;;;;;;6.10;3.50;;;;;;;11.88;44.42;99687.40;108190;1251;70038;-68
2023/12/31 03:36:24;;;;;;;6.20;3.20;;;;;;;11.90;44.56;99691.71;108338;1251;71684;-68
2023/12/31 03:38:51;;;;;;;5.70;3.00;;;;;;;11.98;44.29;99692.36;108288;1252;59870;-67
2023/12/31 03:41:17;;;;;;;6.40;3.20;;;;;;;11.99;44.32;99690.77;108130;1252;59439;-67
2023/12/31 03:43:44;;;;;;;7.00;3.50;;;;;;;11.87;44.58;99693.41;108327;1251;73004;-68
2023/12/31 03:46:11;;;;;;;9.10;3.40;;;;;;;11.65;44.96;99700.31;108341;1251;70261;-66
2023/12/31 03:48:37;;;;;;;7.20;3.60;;;;;;;11.73;44.90;99705.37;108150;1251;72328;-67
2023/12/31 03:51:04;;;;;;;10.00;3.70;;;;;;;11.63;45.09;99709.52;108230;1256;61249;-67
2023/12/31 03:53:31;;;;;;;9.30;4.00;;;;;;;11.64;45.04;99712.30;108316;1252;60347;-68
2023/12/31 03:55:57;;;;;;;9.40;4.40;;;;;;;11.81;44.75;99711.11;108211;1256;73605;-67
2023/12/31 03:58:24;;;;;;;7.50;4.10;;;;;;;11.69;44.92;99713.62;108330;1251;70280;-67
2023/12/31 04:00:51;;;;;;;8.00;4.10;;;;;;;11.56;45.13;99717.05;108323;1253;73125;-68
2023/12/31 04:03:18;;;;;;;9.50;4.10;;;;;;;11.43;45.58;99716.28;108291;1251;60909;-65
2023/12/31 04:05:45;;;;;;;6.50;3.30;;;;;;;11.67;45.14;99722.54;108229;1253;60185;-67
2023/12/31 04:08:11;;;;;;;10.40;4.00;;;;;;;11.53;45.39;99721.96;108328;1255;73425;-67
2023/12/31 04:10:38;;;;;;;9.30;4.10;;;;;;;11.30;45.73;99726.40;108296;1251;70146;-67
2023/12/31 04:13:04;;;;;;;8.90;4.50;;;;;;;11.22;46.00;99728.52;108324;1251;71565;-67
2023/12/31 04:15:32;;;;;;;8.60;4.60;;;;;;;11.39;45.81;99734.41;108373;1252;60970;-67
2023/12/31 04:17:58;;;;;;;9.40;4.00;;;;;;;11.23;45.93;99730.41;108260;1256;60087;-70
2023/12/31 04:20:26;;;;;;;9.50;4.30;;;;;;;11.29;45.95;99730.66;108359;1251;71962;-67
2023/12/31 04:22:52;;;;;;;7.90;3.70;;;;;;;11.30;45.82;99728.98;108161;1256;70878;-66
2023/12/31 04:25:19;;;;;;;9.00;4.10;;;;;;;11.28;45.83;99732.27;108251;1256;72479;-68
2023/12/31 04:27:46;;;;;;;9.90;4.60;;;;;;;11.34;45.80;99728.51;108341;1254;61171;-67
2023/12/31 04:30:12;;;;;;;9.30;4.10;;;;;;;11.47;45.46;99738.41;108409;1252;59584;-67
2023/12/31 04:32:39;;;;;;;9.50;4.80;;;;;;;11.37;45.63;99738.52;108219;1252;73138;-68
2023/12/31 04:35:07;;;;;;;10.20;4.10;;;;;;;11.41;45.49;99735.36;108415;1254;70501;-68
2023/12/31 04:37:33;;;;;;;7.80;4.30;;;;;;;11.33;45.64;99736.61;108255;1256;71507;-66
2023/12/31 04:40:01;;;;;;;7.80;3.80;;;;;;;11.40;45.57;99738.23;108335;1251;60963;-67
2023/12/31 04:42:29;;;;;;;8.80;4.50;;;;;;;11.31;45.68;99740.56;108366;1256;60156;-67
2023/12/31 04:44:56;;;;;;;9.20;5.10;;;;;;;11.39;45.52;99741.05;108249;1251;71505;-66
2023/12/31 04:47:22;;;;;;;8.50;4.90;;;;;;;11.36;45.57;99748.41;108262;1254;70088;-67
2023/12/31 04:49:49;;;;;;;9.40;4.50;;;;;;;11.18;45.93;99750.50;108324;1256;72465;-68
2023/12/31 04:52:16;;;;;;;11.80;4.90;;;;;;;11.28;45.86;99754.06;108326;1256;61203;-67
2023/12/31 04:54:42;;;;;;;10.30;4.40;;;;;;;11.30;45.87;99752.40;108267;1251;59954;-65
2023/12/31 04:57:09;;;;;;;11.90;5.10;;;;;;;11.27;45.87;99754.62;108163;1256;72814;-67
2023/12/31 04:59:36;;;;;;;9.30;4.70;;;;;;;11.13;46.13;99759.83;108236;1254;71052;-68
2023/12/31 05:02:03;;;;;;;9.10;4.70;;;;;;;10.94;46.41;99762.44;108229;1253;72535;-67
2023/12/31 05:04:30;;;;;;;12.60;5.20;;;;;;;11.10;46.14;99759.63;108240;1252;61018;-67
2023/12/31 05:06:58;;;;;;;9.10;4.90;;;;;;;11.13;46.09;99761.45;108171;1254;59205;-67
2023/12/31 05:09:25;;;;;;;12.60;6.30;;;;;;;11.09;46.11;99764.77;108257;1251;71475;-66
2023/12/31 05:11:51;;;;;;;12.90;6.00;;;;;;;10.88;46.60;99775.34;108339;1251;70274;-66
2023/12/31 05:14:19;;;;;;;13.00;5.60;;;;;;;10.75;46.90;99780.28;108336;1255;71656;-67
2023/12/31 05:16:46;;;;;;;12.70;5.90;;;;;;;10.87;46.67;99780.48;108258;1256;61216;-68
2023/12/31 05:19:13;;;;;;;12.90;6.10;;;;;;;10.96;46.47;99780.27;108271;1254;60389;-67
2023/12/31 05:21:40;;;;;;;13.90;5.90;;;;;;;10.78;46.74;99782.27;108389;1251;72898;-67
2023/12/31 05:24:07;;;;;;;9.10;5.60;;;;;;;10.58;47.22;99779.63;108301;1251;69385;-66
2023/12/31 05:26:33;;;;;;;10.50;5.50;;;;;;;10.24;47.89;99778.58;108332;1251;71234;-67
2023/12/31 05:29:01;;;;;;;13.50;6.40;;;;;;;10.29;47.89;99781.52;108360;1256;61022;-67
2023/12/31 05:31:27;;;;;;;11.70;5.70;;;;;;;10.31;47.80;99787.94;108283;1256;60310;-67
2023/12/31 05:33:55;;;;;;;12.90;6.30;;;;;;;10.14;48.23;99791.08;108335;1255;73076;-67
2023/12/31 05:36:21;;;;;;;12.30;6.30;;;;;;;10.06;48.47;99792.62;108261;1253;69282;-67
2023/12/31 05:38:48;;;;;;;11.60;6.20;;;;;;;9.99;48.58;99795.00;108263;1251;73070;-66
2023/12/31 05:41:15;;;;;;;14.50;5.70;;;;;;;10.00;48.69;99794.78;108314;1252;61382;-67
2023/12/31 05:43:42;;;;;;;13.40;6.60;;;;;;;9.96;48.79;99793.73;108329;1251;60428;-68
2023/12/31 05:46:09;;;;;;;10.30;5.70;;;;;;;9.91;48.84;99793.73;108267;1251;72946;-68
2023/12/31 05:48:37;;;;;;;11.40;5.60;;;;;;;9.84;48.94;99798.96;108295;1251;70198;-67
2023/12/31 05:51:04;;;;;;;11.50;6.40;;;;;;;9.96;48.73;99796.19;108246;1253;72548;-66
2023/12/31 05:53:33;;;;;;;12.10;6.10;;;;;;;10.00;48.66;99803.05;108247;1256;61209;-68
2023/12/31 05:56:00;;;;;;;9.30;5.60;;;;;;;10.11;48.59;99807.67;108190;1254;60369;-66
2023/12/31 05:58:27;;;;;;;11.80;5.70;;;;;;;10.00;48.75;99810.94;108296;1254;74048;-68
2023/12/31 06:00:54;;;;;;;10.10;5.80;;;;;;;9.99;48.95;99808.66;108191;1254;68828;-66
2023/12/31 06:03:21;;;;;;;14.60;5.50;;;;;;;9.94;49.08;99806.44;108297;1253;71304;-67
2023/12/31 06:05:48;;;;;;;14.80;6.20;;;;;;;10.03;48.91;99803.98;108140;1252;60261;-65
2023/12/31 06:08:15;;;;;;;13.70;6.10;;;;;;;10.16;48.64;99805.74;108215;1254;60332;-68
2023/12/31 06:10:42;;;;;;;11.60;5.40;;;;;;;10.11;48.63;99810.30;108179;1252;74765;-68
2023/12/31 06:13:09;;;;;;;12.80;6.80;;;;;;;10.10;48.60;99805.25;108132;1253;68340;-67
2023/12/31 06:15:35;;;;;;;14.30;6.80;;;;;;;10.23;48.58;99807.91;108255;1256;72550;-67
2023/12/31 06:18:02;;;;;;;10.70;6.20;;;;;;;10.30;48.40;99809.38;108190;1254;60435;-66
2023/12/31 06:20:29;;;;;;;11.90;5.60;;;;;;;10.66;47.67;99807.00;108194;1254;60341;-67
2023/12/31 06:22:56;;;;;;;16.00;6.60;;;;;;;10.71;47.55;99806.29;108258;1253;74134;-66
2023/12/31 06:25:23;;;;;;;15.70;7.30;;;;;;;10.58;47.78;99810.38;108226;1253;70192;-68
2023/12/31 06:27:50;;;;;;;17.60;8.90;;;;;;;10.62;47.68;99808.79;108198;1254;71519;-67
2023/12/31 06:30:17;;;;;;;16.50;7.90;;;;;;;10.61;47.52;99810.91;108166;1254;61015;-66
2023/12/31 06:32:43;;;;;;;18.40;6.70;;;;;;;10.68;47.34;99811.67;108304;1255;59963;-67
2023/12/31 06:35:10;;;;;;;14.40;6.60;;;;;;;10.57;47.50;99812.14;108407;1251;73657;-67
2023/12/31 06:37:37;;;;;;;12.70;6.30;;;;;;;10.48;47.71;99819.20;108368;1251;69082;-67
2023/12/31 06:40:05;;;;;;;11.70;6.10;;;;;;;10.52;47.56;99817.81;108274;1251;72323;-68
2023/12/31 06:42:31;;;;;;;12.00;6.10;;;;;;;10.63;47.34;99812.09;108364;1252;60578;-68
2023/12/31 06:44:58;;;;;;;11.40;6.70;;;;;;;10.53;47.54;99817.41;108273;1251;60299;-64
2023/12/31 06:47:25;;;;;;;12.00;6.00;;;;;;;10.61;47.43;99823.20;108368;1251;73861;-68
2023/12/31 06:49:52;;;;;;;14.40;6.50;;;;;;;10.54;47.47;99827.70;108387;1251;69684;-64
2023/12/31 06:52:19;;;;;;;14.80;7.40;;;;;;;10.64;47.46;99827.83;108275;1256;71254;-68
2023/12/31 06:54:46;;;;;;;12.90;5.80;;;;;;;10.52;47.64;99825.36;108373;1251;61209;-68
2023/12/31 06:57:12;;;;;;;16.00;6.70;;;;;;;10.58;47.76;99822.83;108335;1251;60444;-68
2023/12/31 06:59:39;;;;;;;12.30;6.10;;;;;;;10.58;47.99;99823.51;108327;1251;73726;-69
2023/12/31 07:02:06;;;;;;;14.10;6.40;;;;;;;10.65;47.92;99833.23;108348;1251;70296;-67
2023/12/31 07:04:33;;;;;;;11.60;6.50;;;;;;;10.91;47.62;99837.02;108317;1251;72711;-68
2023/12/31 07:07:00;;;;;;;12.00;6.20;;;;;;;10.98;47.50;99840.05;108344;1251;60883;-67
2023/12/31 07:09:28;;;;;;;12.70;6.20;;;;;;;11.16;47.07;99840.70;108321;1251;60383;-68
2023/12/31 07:11:55;;;;;;;14.70;6.70;;;;;;;10.55;48.12;99840.09;108246;1256;71880;-67
2023/12/31 07:14:24;;;;;;;12.70;6.20;;;;;;;9.57;50.17;99841.50;108431;1251;69140;-66
2023/12/31 07:16:51;;;;;;;16.90;7.20;;;;;;;9.53;50.61;99841.30;108282;1251;71362;-67
2023/12/31 07:19:19;;;;;;;14.00;7.10;;;;;;;9.64;50.42;99844.21;108325;1251;61089;-68
2023/12/31 07:21:46;;;;;;;15.20;7.10;;;;;;;9.64;50.56;99846.16;108311;1251;60444;-64
2023/12/31 07:24:13;;;;;;;14.50;7.70;;;;;;;9.80;50.55;99846.94;108292;1251;73974;-67
2023/12/31 07:26:42;;;;;;;13.70;6.70;;;;;;;9.83;50.41;99849.80;108108;1251;70442;-68
2023/12/31 07:29:09;;;;;;;15.10;7.00;;;;;;;10.28;50.05;99855.27;108381;1251;72562;-66
2023/12/31 07:31:38;;;;;;;12.30;6.90;;;;;;;10.65;49.30;99860.10;108265;1251;61007;-64
2023/12/31 07:34:05;;;;;;;14.00;6.10;;;;;;;10.82;48.67;99864.81;108379;1255;60559;-67
2023/12/31 07:36:32;;;;;;;15.80;6.90;;;;;;;10.92;48.00;99865.28;108330;1251;71567;-66
2023/12/31 07:38:59;;;;;;;14.90;6.10;;;;;;;11.00;47.54;99863.55;108106;1257;60263;-68
2023/12/31 07:41:26;;;;;;;10.70;5.50;;;;;;;11.01;47.40;99864.00;108183;1251;73016;-67
2023/12/31 07:43:53;;;;;;;13.60;5.90;;;;;;;11.00;47.38;99861.59;108280;1251;61322;-68
2023/12/31 07:46:19;;;;;;;9.10;5.60;;;;;;;11.10;47.22;99864.50;108268;1251;59745;-66
2023/12/31 07:48:46;;;;;;;15.10;6.00;;;;;;;11.30;46.69;99859.03;108307;1251;73701;-67
2023/12/31 07:51:14;;;;;;;13.00;6.50;;;;;;;12.35;44.48;99856.84;108331;1251;70255;-68
2023/12/31 07:53:41;;;;;;;12.90;5.90;;;;;;;11.06;46.56;99869.42;108277;1256;73840;-69
2023/12/31 07:56:07;;;;;;;15.90;6.40;;;;;;;10.75;47.51;99869.00;108271;1251;60806;-67
2023/12/31 07:58:35;;;;;;;14.00;5.60;;;;;;;10.85;47.47;99874.89;108274;1251;60738;-67
2023/12/31 08:01:02;;;;;;;14.30;5.60;;;;;;;10.96;47.31;99878.66;108266;1251;74379;-67
2023/12/31 08:03:29;;;;;;;16.50;6.70;;;;;;;11.15;47.00;99877.13;108329;1251;70335;-67
2023/12/31 08:05:57;;;;;;;10.00;5.10;;;;;;;11.54;46.48;99878.55;108305;1251;71258;-68
2023/12/31 08:08:24;;;;;;;11.90;5.10;;;;;;;11.94;45.65;99878.00;108363;1251;60457;-68
2023/12/31 08:10:51;;;;;;;9.50;4.80;;;;;;;12.86;44.59;99879.83;108286;1251;60337;-68
2023/12/31 08:13:18;;;;;;;12.30;5.60;;;;;;;13.25;43.40;99877.55;108238;1251;72671;-68
2023/12/31 08:15:44;;;;;;;14.00;5.90;;;;;;;13.60;42.34;99878.02;108360;1251;70244;-67
2023/12/31 08:18:12;;;;;;;14.30;5.30;;;;;;;14.04;41.36;99878.96;108269;1251;72548;-68
2023/12/31 08:20:39;;;;;;;12.00;5.40;;;;;;;14.80;40.09;99887.22;108306;1251;61175;-67
2023/12/31 08:23:05;;;;;;;8.50;4.30;;;;;;;15.09;39.22;99886.25;108280;1251;60142;-66
2023/12/31 08:25:33;;;;;;;13.00;5.30;;;;;;;15.09;38.77;99892.09;108272;1251;73947;-65
2023/12/31 08:27:59;;;;;;;9.90;4.70;;;;;;;15.00;38.99;99899.86;108389;1251;70742;-67
2023/12/31 08:30:26;;;;;;;7.90;4.20;;;;;;;14.87;38.96;99901.84;108377;1251;72979;-68
2023/12/31 08:32:53;;;;;;;13.90;4.60;;;;;;;14.45;39.33;99900.71;108291;1251;60328;-67
2023/12/31 08:35:22;;;;;;;8.10;4.10;;;;;;;14.14;39.89;99897.65;108309;1251;61067;-67
2023/12/31 08:37:48;;;;;;;10.60;4.20;;;;;;;14.05;40.03;99898.67;108352;1251;71952;-67
2023/12/31 08:40:19;;;;;;;8.60;4.30;;;;;;;13.90;40.58;99894.38;108411;1256;69795;-68
2023/12/31 08:42:45;;;;;;;10.70;4.00;;;;;;;13.86;40.53;99890.05;108403;1251;72999;-68
2023/12/31 08:45:12;;;;;;;10.00;4.20;;;;;;;13.48;40.89;99885.70;108280;1255;60530;-67
2023/12/31 08:47:39;;;;;;;10.50;4.00;;;;;;;13.23;41.67;99887.70;108287;1251;60908;-67
2023/12/31 08:50:09;;;;;;;6.30;3.40;;;;;;;13.76;41.25;99884.38;108309;1251;74827;-68
2023/12/31 08:52:38;;;;;;;10.90;4.20;;;;;;;15.80;38.47;99877.66;108300;1256;70265;-68
2023/12/31 08:55:08;;;;;;;6.60;3.70;;;;;;;16.69;36.85;99878.19;108296;1255;72759;-66
2023/12/31 08:57:35;;;;;;;11.50;4.00;;;;;;;17.63;35.14;99876.04;108272;1251;60401;-67
2023/12/31 09:00:03;;;;;;;11.20;3.60;;;;;;;17.72;34.22;99875.02;108236;1251;61366;-67
2023/12/31 09:02:30;;;;;;;7.40;3.40;;;;;;;17.57;34.35;99879.87;108279;1251;73878;-67
2023/12/31 09:04:57;;;;;;;7.20;3.30;;;;;;;16.68;34.94;99888.31;108269;1251;70185;-68
2023/12/31 09:07:24;;;;;;;9.30;4.00;;;;;;;16.19;35.65;99885.85;108241;1251;72591;-68
2023/12/31 09:09:50;;;;;;;7.90;3.40;;;;;;;15.99;35.98;99889.96;108287;1251;60303;-68
2023/12/31 09:12:17;;;;;;;10.40;4.00;;;;;;;15.63;36.55;99891.50;108303;1251;60429;-66
2023/12/31 09:14:44;;;;;;;11.40;3.80;;;;;;;15.30;37.00;99894.88;108358;1251;73874;-68
2023/12/31 09:17:11;;;;;;;12.90;4.30;;;;;;;15.16;37.33;99894.30;108313;1251;70321;-68
2023/12/31 09:19:38;;;;;;;8.20;4.00;;;;;;;14.99;37.68;99896.05;108278;1256;72448;-68
2023/12/31 09:22:05;;;;;;;9.20;3.80;;;;;;;14.69;38.11;99901.13;108311;1256;60499;-68
2023/12/31 09:24:32;;;;;;;10.50;4.10;;;;;;;14.47;38.53;99897.40;108249;1251;60326;-68
2023/12/31 09:26:59;;;;;;;9.40;3.80;;;;;;;14.28;38.80;99898.13;108292;1251;72757;-69
2023/12/31 09:29:26;;;;;;;8.60;3.90;;;;;;;14.42;38.66;99901.57;108270;1251;69354;-66
2023/12/31 09:31:52;;;;;;;9.90;4.30;;;;;;;14.29;38.96;99893.64;108278;1251;71441;-66
2023/12/31 09:34:19;;;;;;;9.40;3.90;;;;;;;14.16;39.13;99899.86;108322;1251;60275;-68
2023/12/31 09:36:46;;;;;;;10.90;3.70;;;;;;;13.94;39.38;99906.55;108228;1253;60344;-67
2023/12/31 09:39:13;;;;;;;10.20;4.10;;;;;;;13.79;39.78;99908.03;108239;1256;74350;-69
2023/12/31 09:41:40;;;;;;;7.40;3.20;;;;;;;13.66;39.95;99903.46;108136;1253;60230;-67
2023/12/31 09:44:07;;;;;;;10.10;4.20;;;;;;;13.64;39.96;99900.21;108114;1253;71326;-68
2023/12/31 09:46:37;;;;;;;12.10;4.20;;;;;;;13.76;39.70;99902.59;108217;1254;60963;-67
2023/12/31 09:49:04;;;;;;;11.50;3.60;;;;;;;13.87;39.69;99906.00;108172;1254;60314;-65
2023/12/31 09:51:32;;;;;;;11.30;4.00;;;;;;;13.87;39.64;99908.36;108254;1253;73867;-69
2023/12/31 09:53:58;;;;;;;7.70;3.90;;;;;;;13.87;39.48;99906.54;108240;1252;70660;-69
2023/12/31 09:56:25;;;;;;;7.00;3.70;;;;;;;13.70;39.65;99910.24;108064;1253;72404;-68
2023/12/31 09:58:52;;;;;;;9.60;3.40;;;;;;;13.57;39.89;99913.80;108099;1254;60341;-69
2023/12/31 10:01:31;;;;;;;7.90;3.50;;;;;;;13.41;40.15;99915.70;108188;1252;60411;-67
2023/12/31 10:03:58;;;;;;;8.00;3.70;;;;;;;12.40;41.99;99917.69;108250;1253;74021;-68
2023/12/31 10:06:25;;;;;;;9.10;3.40;;;;;;;12.34;42.39;99909.90;108187;1254;70291;-68
2023/12/31 10:08:51;;;;;;;9.40;3.30;;;;;;;13.87;40.01;99901.77;107981;1253;72441;-68
2023/12/31 10:11:18;;;;;;;9.30;2.80;;;;;;;14.78;38.14;99898.67;108063;1257;60335;-68
2023/12/31 10:13:45;;;;;;;7.90;3.10;;;;;;;15.31;36.56;99894.13;108148;1252;60438;-69
2023/12/31 10:16:13;;;;;;;9.50;3.20;;;;;;;15.96;35.19;99885.56;108217;1253;73622;-68
2023/12/31 10:18:41;;;;;;;14.10;4.50;;;;;;;16.75;34.97;99879.36;108158;1253;70388;-69
2023/12/31 10:21:09;;;;;;;12.00;4.30;;;;;;;17.85;34.37;99872.72;108159;1252;72704;-69
2023/12/31 10:23:36;;;;;;;11.70;4.50;;;;;;;18.85;32.92;99866.79;108030;1253;60461;-69
2023/12/31 10:26:02;;;;;;;9.70;4.20;;;;;;;19.67;32.01;99863.97;108251;1253;59317;-69
2023/12/31 10:28:29;;;;;;;9.40;3.80;;;;;;;20.34;30.87;99860.90;108216;1253;72651;-69
2023/12/31 10:30:56;;;;;;;8.10;3.60;;;;;;;20.84;29.81;99854.07;108241;1253;70407;-69
2023/12/31 10:33:27;;;;;;;8.30;3.00;;;;;;;21.19;29.23;99859.52;108212;1253;70796;-69
2023/12/31 10:36:04;;;;;;;;;;;;;;;21.34;27.90;99856.12;108291;1255;60432;-69
2023/12/31 10:38:47;;;;;;;5.60;2.10;;;;;;;21.40;26.88;99850.24;108213;1252;59672;-68
2023/12/31 10:41:21;;;;;;;7.50;2.40;;;;;;;21.92;26.32;99849.63;108234;1256;71785;-69
2023/12/31 10:43:48;;;;;;;8.40;2.00;;;;;;;22.32;25.07;99851.08;108142;1253;70174;-69
2023/12/31 10:46:15;;;;;;;5.40;2.10;;;;;;;21.63;24.98;99856.91;108168;1252;71160;-69
2023/12/31 10:48:49;;;;;;;4.70;2.40;;;;;;;20.25;26.24;99862.49;108143;1253;60325;-69
2023/12/31 10:51:22;;;;;;;5.90;2.10;;;;;;;19.71;27.25;99862.59;108161;1254;60329;-68
2023/12/31 10:53:54;;;;;;;4.80;2.00;;;;;;;19.00;27.82;99864.12;108189;1252;74256;-69
2023/12/31 10:56:23;;;;;;;5.50;1.90;;;;;;;18.99;28.19;99861.89;108199;1255;68851;-69
2023/12/31 10:58:52;;;;;;;5.60;2.00;;;;;;;18.96;28.17;99865.36;108176;1254;71623;-69
2023/12/31 11:01:18;;;;;;;6.80;2.10;;;;;;;18.90;27.97;99862.55;108231;1253;60335;-69
2023/12/31 11:03:45;;;;;;;5.60;1.70;;;;;;;18.41;28.28;99860.85;108073;1253;60422;-69
2023/12/31 11:06:12;;;;;;;5.60;1.60;;;;;;;17.43;29.08;99860.73;108081;1253;72426;-69
2023/12/31 11:08:39;;;;;;;6.10;2.20;;;;;;;17.25;29.86;99857.92;108195;1252;70115;-69
2023/12/31 11:11:07;;;;;;;6.30;2.10;;;;;;;17.70;29.25;99852.30;108223;1253;72603;-69
2023/12/31 11:13:35;;;;;;;4.50;2.10;;;;;;;17.41;29.30;99853.24;108173;1252;60382;-68
2023/12/31 11:16:03;;;;;;;5.30;1.80;;;;;;;17.37;29.55;99859.41;108202;1252;60316;-69
2023/12/31 11:19:00;;;;;;;5.80;1.70;;;;;;;17.49;28.82;99856.42;108217;1253;74462;-68
2023/12/31 11:21:55;;;;;;;4.10;1.60;;;;;;;17.71;28.51;99862.66;108201;1253;70668;-69
2023/12/31 11:24:23;;;;;;;5.80;1.90;;;;;;;17.98;28.48;99864.54;108230;1251;72629;-69
2023/12/31 11:27:03;;;;;;;5.00;1.90;;;;;;;18.37;27.96;99869.32;108176;1253;60438;-68